sensor_id;sensor_type;location;lat;lon;timestamp;P1;durP1;ratioP1;P2;durP2;ratioP2
48006;SDS011;33771;48.180;11.400;2022-08-03T00:01:03;4.15;;;2.10;;
48006;SDS011;33771;48.180;11.400;2022-08-03T00:03:29;5.68;;;2.13;;
48006;SDS011;33771;48.180;11.400;2022-08-03T00:05:54;7.45;;;1.88;;
48006;SDS011;33771;48.180;11.400;2022-08-03T00:08:20;3.45;;;2.10;;
48006;SDS011;33771;48.180;11.400;2022-08-03T00:10:46;5.68;;;2.15;;
48006;SDS011;33771;48.180;11.400;2022-08-03T00:13:11;4.95;;;1.95;;
48006;SDS011;33771;48.180;11.400;2022-08-03T00:15:38;4.32;;;2.00;;
48006;SDS011;33771;48.180;11.400;2022-08-03T00:18:04;3.33;;;1.80;;
48006;SDS011;33771;48.180;11.400;2022-08-03T00:20:30;3.08;;;1.90;;
48006;SDS011;33771;48.180;11.400;2022-08-03T00:22:56;5.57;;;2.20;;
48006;SDS011;33771;48.180;11.400;2022-08-03T00:25:21;4.38;;;2.10;;
48006;SDS011;33771;48.180;11.400;2022-08-03T00:27:47;2.63;;;1.83;;
48006;SDS011;33771;48.180;11.400;2022-08-03T00:30:12;3.70;;;1.83;;
48006;SDS011;33771;48.180;11.400;2022-08-03T00:32:38;3.22;;;1.70;;
48006;SDS011;33771;48.180;11.400;2022-08-03T00:35:03;2.55;;;1.95;;
48006;SDS011;33771;48.180;11.400;2022-08-03T00:37:30;5.63;;;1.75;;
48006;SDS011;33771;48.180;11.400;2022-08-03T00:39:55;3.53;;;1.98;;
48006;SDS011;33771;48.180;11.400;2022-08-03T00:42:21;5.38;;;2.00;;
48006;SDS011;33771;48.180;11.400;2022-08-03T00:44:46;6.88;;;1.95;;
48006;SDS011;33771;48.180;11.400;2022-08-03T00:47:12;3.17;;;1.58;;
48006;SDS011;33771;48.180;11.400;2022-08-03T00:49:38;3.60;;;1.52;;
48006;SDS011;33771;48.180;11.400;2022-08-03T00:52:05;5.68;;;2.22;;
48006;SDS011;33771;48.180;11.400;2022-08-03T00:54:32;4.07;;;2.22;;
48006;SDS011;33771;48.180;11.400;2022-08-03T00:57:00;4.05;;;2.08;;
48006;SDS011;33771;48.180;11.400;2022-08-03T00:59:26;4.68;;;1.80;;
48006;SDS011;33771;48.180;11.400;2022-08-03T01:01:52;5.80;;;1.80;;
48006;SDS011;33771;48.180;11.400;2022-08-03T01:04:18;4.13;;;1.85;;
48006;SDS011;33771;48.180;11.400;2022-08-03T01:06:51;4.65;;;2.05;;
48006;SDS011;33771;48.180;11.400;2022-08-03T01:12:42;6.70;;;2.10;;
48006;SDS011;33771;48.180;11.400;2022-08-03T01:17:52;3.38;;;1.90;;
48006;SDS011;33771;48.180;11.400;2022-08-03T01:20:23;3.15;;;1.98;;
48006;SDS011;33771;48.180;11.400;2022-08-03T01:25:31;2.50;;;1.88;;
48006;SDS011;33771;48.180;11.400;2022-08-03T01:28:01;3.60;;;1.90;;
48006;SDS011;33771;48.180;11.400;2022-08-03T01:30:55;2.95;;;1.80;;
48006;SDS011;33771;48.180;11.400;2022-08-03T01:33:25;5.07;;;2.10;;
48006;SDS011;33771;48.180;11.400;2022-08-03T01:35:59;4.93;;;1.85;;
48006;SDS011;33771;48.180;11.400;2022-08-03T01:38:30;3.92;;;1.63;;
48006;SDS011;33771;48.180;11.400;2022-08-03T01:41:00;3.75;;;1.80;;
48006;SDS011;33771;48.180;11.400;2022-08-03T01:43:32;5.05;;;2.30;;
48006;SDS011;33771;48.180;11.400;2022-08-03T01:46:00;5.15;;;1.83;;
48006;SDS011;33771;48.180;11.400;2022-08-03T01:48:28;2.30;;;1.80;;
48006;SDS011;33771;48.180;11.400;2022-08-03T01:50:55;4.03;;;2.00;;
48006;SDS011;33771;48.180;11.400;2022-08-03T01:53:23;2.63;;;1.83;;
48006;SDS011;33771;48.180;11.400;2022-08-03T01:55:51;3.80;;;1.90;;
48006;SDS011;33771;48.180;11.400;2022-08-03T01:58:19;3.95;;;1.92;;
48006;SDS011;33771;48.180;11.400;2022-08-03T02:00:48;4.53;;;1.90;;
48006;SDS011;33771;48.180;11.400;2022-08-03T02:03:15;5.43;;;1.90;;
48006;SDS011;33771;48.180;11.400;2022-08-03T02:05:42;3.17;;;2.22;;
48006;SDS011;33771;48.180;11.400;2022-08-03T02:08:12;2.40;;;1.67;;
48006;SDS011;33771;48.180;11.400;2022-08-03T02:10:40;2.67;;;2.00;;
48006;SDS011;33771;48.180;11.400;2022-08-03T02:13:07;3.15;;;1.83;;
48006;SDS011;33771;48.180;11.400;2022-08-03T02:15:37;5.97;;;1.90;;
48006;SDS011;33771;48.180;11.400;2022-08-03T02:18:04;3.20;;;1.98;;
48006;SDS011;33771;48.180;11.400;2022-08-03T02:20:32;2.90;;;1.63;;
48006;SDS011;33771;48.180;11.400;2022-08-03T02:23:01;3.03;;;1.67;;
48006;SDS011;33771;48.180;11.400;2022-08-03T02:25:27;3.60;;;2.00;;
48006;SDS011;33771;48.180;11.400;2022-08-03T02:27:56;4.00;;;1.75;;
48006;SDS011;33771;48.180;11.400;2022-08-03T02:30:32;4.22;;;1.90;;
48006;SDS011;33771;48.180;11.400;2022-08-03T02:33:03;2.85;;;1.67;;
48006;SDS011;33771;48.180;11.400;2022-08-03T02:35:31;5.28;;;1.80;;
48006;SDS011;33771;48.180;11.400;2022-08-03T02:38:00;2.22;;;1.52;;
48006;SDS011;33771;48.180;11.400;2022-08-03T02:40:28;3.58;;;1.73;;
48006;SDS011;33771;48.180;11.400;2022-08-03T02:42:57;2.72;;;1.80;;
48006;SDS011;33771;48.180;11.400;2022-08-03T02:45:25;5.28;;;2.25;;
48006;SDS011;33771;48.180;11.400;2022-08-03T02:47:54;4.40;;;1.77;;
48006;SDS011;33771;48.180;11.400;2022-08-03T02:50:23;3.42;;;1.98;;
48006;SDS011;33771;48.180;11.400;2022-08-03T02:52:51;4.43;;;2.08;;
48006;SDS011;33771;48.180;11.400;2022-08-03T02:55:19;6.90;;;2.17;;
48006;SDS011;33771;48.180;11.400;2022-08-03T02:57:46;3.67;;;1.73;;
48006;SDS011;33771;48.180;11.400;2022-08-03T03:00:14;3.28;;;1.80;;
48006;SDS011;33771;48.180;11.400;2022-08-03T03:02:40;3.65;;;1.70;;
48006;SDS011;33771;48.180;11.400;2022-08-03T03:05:06;7.03;;;1.95;;
48006;SDS011;33771;48.180;11.400;2022-08-03T03:07:34;6.82;;;2.13;;
48006;SDS011;33771;48.180;11.400;2022-08-03T03:10:00;4.28;;;2.20;;
48006;SDS011;33771;48.180;11.400;2022-08-03T03:12:27;3.60;;;1.80;;
48006;SDS011;33771;48.180;11.400;2022-08-03T03:14:55;3.90;;;1.75;;
48006;SDS011;33771;48.180;11.400;2022-08-03T03:17:20;4.07;;;2.03;;
48006;SDS011;33771;48.180;11.400;2022-08-03T03:19:47;2.47;;;1.80;;
48006;SDS011;33771;48.180;11.400;2022-08-03T03:22:15;2.40;;;1.77;;
48006;SDS011;33771;48.180;11.400;2022-08-03T03:24:41;5.88;;;1.92;;
48006;SDS011;33771;48.180;11.400;2022-08-03T03:27:08;2.90;;;1.95;;
48006;SDS011;33771;48.180;11.400;2022-08-03T03:29:33;3.85;;;1.80;;
48006;SDS011;33771;48.180;11.400;2022-08-03T03:32:00;3.38;;;1.90;;
48006;SDS011;33771;48.180;11.400;2022-08-03T03:34:27;5.35;;;2.20;;
48006;SDS011;33771;48.180;11.400;2022-08-03T03:36:54;3.70;;;2.10;;
48006;SDS011;33771;48.180;11.400;2022-08-03T03:39:19;3.03;;;1.83;;
48006;SDS011;33771;48.180;11.400;2022-08-03T03:41:45;8.15;;;2.33;;
48006;SDS011;33771;48.180;11.400;2022-08-03T03:44:10;5.35;;;2.08;;
48006;SDS011;33771;48.180;11.400;2022-08-03T03:46:37;6.95;;;2.22;;
48006;SDS011;33771;48.180;11.400;2022-08-03T03:49:06;3.38;;;2.03;;
48006;SDS011;33771;48.180;11.400;2022-08-03T03:51:32;4.32;;;1.80;;
48006;SDS011;33771;48.180;11.400;2022-08-03T03:53:59;3.50;;;1.85;;
48006;SDS011;33771;48.180;11.400;2022-08-03T03:56:26;4.97;;;2.05;;
48006;SDS011;33771;48.180;11.400;2022-08-03T03:58:52;2.72;;;1.67;;
48006;SDS011;33771;48.180;11.400;2022-08-03T04:01:18;5.40;;;2.03;;
48006;SDS011;33771;48.180;11.400;2022-08-03T04:03:44;5.60;;;2.03;;
48006;SDS011;33771;48.180;11.400;2022-08-03T04:06:10;6.13;;;2.13;;
48006;SDS011;33771;48.180;11.400;2022-08-03T04:08:56;6.85;;;1.95;;
48006;SDS011;33771;48.180;11.400;2022-08-03T04:11:42;4.53;;;2.23;;
48006;SDS011;33771;48.180;11.400;2022-08-03T04:14:12;6.75;;;2.35;;
48006;SDS011;33771;48.180;11.400;2022-08-03T04:17:06;4.78;;;1.95;;
48006;SDS011;33771;48.180;11.400;2022-08-03T04:19:37;5.32;;;2.08;;
48006;SDS011;33771;48.180;11.400;2022-08-03T04:22:08;7.05;;;2.40;;
48006;SDS011;33771;48.180;11.400;2022-08-03T04:25:18;6.03;;;2.00;;
48006;SDS011;33771;48.180;11.400;2022-08-03T04:27:27;5.93;;;2.20;;
48006;SDS011;33771;48.180;11.400;2022-08-03T04:30:01;3.20;;;2.08;;
48006;SDS011;33771;48.180;11.400;2022-08-03T04:32:29;3.67;;;2.00;;
48006;SDS011;33771;48.180;11.400;2022-08-03T04:34:55;6.40;;;2.05;;
48006;SDS011;33771;48.180;11.400;2022-08-03T04:37:32;3.70;;;1.83;;
48006;SDS011;33771;48.180;11.400;2022-08-03T04:40:04;7.10;;;2.30;;
48006;SDS011;33771;48.180;11.400;2022-08-03T04:42:32;7.00;;;2.22;;
48006;SDS011;33771;48.180;11.400;2022-08-03T04:44:59;7.72;;;2.30;;
48006;SDS011;33771;48.180;11.400;2022-08-03T04:47:28;3.08;;;1.95;;
48006;SDS011;33771;48.180;11.400;2022-08-03T04:49:56;4.93;;;2.28;;
48006;SDS011;33771;48.180;11.400;2022-08-03T04:52:24;5.25;;;2.10;;
48006;SDS011;33771;48.180;11.400;2022-08-03T04:54:49;3.70;;;2.25;;
48006;SDS011;33771;48.180;11.400;2022-08-03T04:57:15;6.07;;;2.10;;
48006;SDS011;33771;48.180;11.400;2022-08-03T04:59:40;5.07;;;2.20;;
48006;SDS011;33771;48.180;11.400;2022-08-03T05:02:06;4.35;;;2.40;;
48006;SDS011;33771;48.180;11.400;2022-08-03T05:04:32;6.00;;;2.25;;
48006;SDS011;33771;48.180;11.400;2022-08-03T05:06:57;4.13;;;2.22;;
48006;SDS011;33771;48.180;11.400;2022-08-03T05:09:23;3.50;;;1.98;;
48006;SDS011;33771;48.180;11.400;2022-08-03T05:11:48;6.85;;;2.35;;
48006;SDS011;33771;48.180;11.400;2022-08-03T05:14:14;4.28;;;2.63;;
48006;SDS011;33771;48.180;11.400;2022-08-03T05:16:39;4.13;;;2.47;;
48006;SDS011;33771;48.180;11.400;2022-08-03T05:19:07;4.00;;;2.25;;
48006;SDS011;33771;48.180;11.400;2022-08-03T05:21:33;4.05;;;2.80;;
48006;SDS011;33771;48.180;11.400;2022-08-03T05:23:58;4.95;;;2.78;;
48006;SDS011;33771;48.180;11.400;2022-08-03T05:26:27;4.80;;;2.67;;
48006;SDS011;33771;48.180;11.400;2022-08-03T05:28:54;3.78;;;2.30;;
48006;SDS011;33771;48.180;11.400;2022-08-03T05:31:19;5.85;;;2.53;;
48006;SDS011;33771;48.180;11.400;2022-08-03T05:33:45;2.92;;;2.15;;
48006;SDS011;33771;48.180;11.400;2022-08-03T05:36:12;5.82;;;3.08;;
48006;SDS011;33771;48.180;11.400;2022-08-03T05:38:38;4.10;;;2.35;;
48006;SDS011;33771;48.180;11.400;2022-08-03T05:41:03;7.85;;;2.70;;
48006;SDS011;33771;48.180;11.400;2022-08-03T05:43:29;4.57;;;2.53;;
48006;SDS011;33771;48.180;11.400;2022-08-03T05:45:55;5.38;;;2.67;;
48006;SDS011;33771;48.180;11.400;2022-08-03T05:48:22;4.10;;;2.28;;
48006;SDS011;33771;48.180;11.400;2022-08-03T05:50:48;4.05;;;2.42;;
48006;SDS011;33771;48.180;11.400;2022-08-03T05:53:18;2.80;;;2.13;;
48006;SDS011;33771;48.180;11.400;2022-08-03T05:55:44;3.78;;;2.20;;
48006;SDS011;33771;48.180;11.400;2022-08-03T05:58:10;6.57;;;2.38;;
48006;SDS011;33771;48.180;11.400;2022-08-03T06:00:38;7.28;;;2.30;;
48006;SDS011;33771;48.180;11.400;2022-08-03T06:03:03;7.50;;;2.28;;
48006;SDS011;33771;48.180;11.400;2022-08-03T06:05:29;4.82;;;2.63;;
48006;SDS011;33771;48.180;11.400;2022-08-03T06:07:55;2.72;;;2.20;;
48006;SDS011;33771;48.180;11.400;2022-08-03T06:10:21;5.22;;;2.60;;
48006;SDS011;33771;48.180;11.400;2022-08-03T06:12:46;2.75;;;2.03;;
48006;SDS011;33771;48.180;11.400;2022-08-03T06:15:13;5.47;;;2.20;;
48006;SDS011;33771;48.180;11.400;2022-08-03T06:17:43;4.25;;;2.33;;
48006;SDS011;33771;48.180;11.400;2022-08-03T06:20:10;4.90;;;2.38;;
48006;SDS011;33771;48.180;11.400;2022-08-03T06:22:36;6.28;;;2.30;;
48006;SDS011;33771;48.180;11.400;2022-08-03T06:25:01;4.28;;;2.20;;
48006;SDS011;33771;48.180;11.400;2022-08-03T06:27:27;5.07;;;1.90;;
48006;SDS011;33771;48.180;11.400;2022-08-03T06:29:52;6.00;;;1.80;;
48006;SDS011;33771;48.180;11.400;2022-08-03T06:32:18;2.75;;;1.90;;
48006;SDS011;33771;48.180;11.400;2022-08-03T06:34:46;5.78;;;2.30;;
48006;SDS011;33771;48.180;11.400;2022-08-03T06:37:12;3.30;;;2.00;;
48006;SDS011;33771;48.180;11.400;2022-08-03T06:39:38;4.05;;;2.15;;
48006;SDS011;33771;48.180;11.400;2022-08-03T06:42:03;4.70;;;2.10;;
48006;SDS011;33771;48.180;11.400;2022-08-03T06:44:29;6.53;;;2.50;;
48006;SDS011;33771;48.180;11.400;2022-08-03T06:46:55;6.95;;;2.08;;
48006;SDS011;33771;48.180;11.400;2022-08-03T06:49:20;5.03;;;2.30;;
48006;SDS011;33771;48.180;11.400;2022-08-03T06:51:46;3.53;;;2.03;;
48006;SDS011;33771;48.180;11.400;2022-08-03T06:54:12;4.60;;;2.20;;
48006;SDS011;33771;48.180;11.400;2022-08-03T06:56:37;2.83;;;1.95;;
48006;SDS011;33771;48.180;11.400;2022-08-03T06:59:03;4.60;;;2.10;;
48006;SDS011;33771;48.180;11.400;2022-08-03T07:01:28;4.15;;;2.13;;
48006;SDS011;33771;48.180;11.400;2022-08-03T07:03:54;5.05;;;2.03;;
48006;SDS011;33771;48.180;11.400;2022-08-03T07:06:20;2.65;;;1.85;;
48006;SDS011;33771;48.180;11.400;2022-08-03T07:08:45;6.18;;;2.08;;
48006;SDS011;33771;48.180;11.400;2022-08-03T07:11:11;6.63;;;1.98;;
48006;SDS011;33771;48.180;11.400;2022-08-03T07:13:37;4.65;;;2.30;;
48006;SDS011;33771;48.180;11.400;2022-08-03T07:16:05;4.78;;;2.05;;
48006;SDS011;33771;48.180;11.400;2022-08-03T07:18:30;10.85;;;3.05;;
48006;SDS011;33771;48.180;11.400;2022-08-03T07:20:56;10.00;;;2.85;;
48006;SDS011;33771;48.180;11.400;2022-08-03T07:23:22;5.10;;;2.70;;
48006;SDS011;33771;48.180;11.400;2022-08-03T07:25:48;11.15;;;3.35;;
48006;SDS011;33771;48.180;11.400;2022-08-03T07:28:14;8.73;;;2.67;;
48006;SDS011;33771;48.180;11.400;2022-08-03T07:30:40;8.10;;;3.10;;
48006;SDS011;33771;48.180;11.400;2022-08-03T07:33:05;10.43;;;2.80;;
48006;SDS011;33771;48.180;11.400;2022-08-03T07:35:31;11.13;;;3.05;;
48006;SDS011;33771;48.180;11.400;2022-08-03T07:37:57;10.77;;;2.90;;
48006;SDS011;33771;48.180;11.400;2022-08-03T07:40:23;9.98;;;3.00;;
48006;SDS011;33771;48.180;11.400;2022-08-03T07:42:49;17.13;;;4.10;;
48006;SDS011;33771;48.180;11.400;2022-08-03T07:45:16;10.98;;;3.60;;
48006;SDS011;33771;48.180;11.400;2022-08-03T07:47:42;10.93;;;2.47;;
48006;SDS011;33771;48.180;11.400;2022-08-03T07:50:08;8.63;;;2.70;;
48006;SDS011;33771;48.180;11.400;2022-08-03T07:52:33;6.13;;;2.50;;
48006;SDS011;33771;48.180;11.400;2022-08-03T07:55:15;4.78;;;2.40;;
48006;SDS011;33771;48.180;11.400;2022-08-03T07:57:42;6.00;;;2.22;;
48006;SDS011;33771;48.180;11.400;2022-08-03T08:00:11;4.90;;;2.50;;
48006;SDS011;33771;48.180;11.400;2022-08-03T08:05:08;3.40;;;2.20;;
48006;SDS011;33771;48.180;11.400;2022-08-03T08:07:35;4.63;;;2.22;;
48006;SDS011;33771;48.180;11.400;2022-08-03T08:10:01;6.57;;;2.15;;
48006;SDS011;33771;48.180;11.400;2022-08-03T08:12:27;7.10;;;2.90;;
48006;SDS011;33771;48.180;11.400;2022-08-03T08:14:55;10.35;;;3.63;;
48006;SDS011;33771;48.180;11.400;2022-08-03T08:17:21;6.03;;;2.70;;
48006;SDS011;33771;48.180;11.400;2022-08-03T08:19:46;5.25;;;2.30;;
48006;SDS011;33771;48.180;11.400;2022-08-03T08:22:12;6.85;;;2.22;;
48006;SDS011;33771;48.180;11.400;2022-08-03T08:24:37;5.18;;;2.05;;
48006;SDS011;33771;48.180;11.400;2022-08-03T08:27:04;2.80;;;1.95;;
48006;SDS011;33771;48.180;11.400;2022-08-03T08:29:29;6.13;;;2.40;;
48006;SDS011;33771;48.180;11.400;2022-08-03T08:31:55;9.63;;;2.53;;
48006;SDS011;33771;48.180;11.400;2022-08-03T08:34:20;4.43;;;2.45;;
48006;SDS011;33771;48.180;11.400;2022-08-03T08:36:46;4.03;;;1.60;;
48006;SDS011;33771;48.180;11.400;2022-08-03T08:39:11;4.78;;;1.60;;
48006;SDS011;33771;48.180;11.400;2022-08-03T08:41:37;4.72;;;1.42;;
48006;SDS011;33771;48.180;11.400;2022-08-03T08:44:02;3.22;;;1.58;;
48006;SDS011;33771;48.180;11.400;2022-08-03T08:46:29;4.28;;;1.50;;
48006;SDS011;33771;48.180;11.400;2022-08-03T08:48:56;3.13;;;1.70;;
48006;SDS011;33771;48.180;11.400;2022-08-03T08:51:27;2.20;;;1.30;;
48006;SDS011;33771;48.180;11.400;2022-08-03T08:53:57;2.30;;;1.30;;
48006;SDS011;33771;48.180;11.400;2022-08-03T08:56:27;2.65;;;1.52;;
48006;SDS011;33771;48.180;11.400;2022-08-03T08:58:56;6.85;;;1.40;;
48006;SDS011;33771;48.180;11.400;2022-08-03T09:01:25;4.68;;;1.20;;
48006;SDS011;33771;48.180;11.400;2022-08-03T09:03:52;1.77;;;1.30;;
48006;SDS011;33771;48.180;11.400;2022-08-03T09:06:18;5.63;;;1.50;;
48006;SDS011;33771;48.180;11.400;2022-08-03T09:08:44;4.75;;;1.42;;
48006;SDS011;33771;48.180;11.400;2022-08-03T09:11:10;2.45;;;1.60;;
48006;SDS011;33771;48.180;11.400;2022-08-03T09:13:36;3.85;;;1.45;;
48006;SDS011;33771;48.180;11.400;2022-08-03T09:16:08;3.28;;;1.30;;
48006;SDS011;33771;48.180;11.400;2022-08-03T09:18:36;5.50;;;1.30;;
48006;SDS011;33771;48.180;11.400;2022-08-03T09:23:57;1.85;;;1.30;;
48006;SDS011;33771;48.180;11.400;2022-08-03T09:29:06;5.45;;;1.27;;
48006;SDS011;33771;48.180;11.400;2022-08-03T09:34:01;2.80;;;1.20;;
48006;SDS011;33771;48.180;11.400;2022-08-03T09:39:03;2.97;;;1.30;;
48006;SDS011;33771;48.180;11.400;2022-08-03T09:41:31;4.90;;;1.20;;
48006;SDS011;33771;48.180;11.400;2022-08-03T09:43:57;5.80;;;1.17;;
48006;SDS011;33771;48.180;11.400;2022-08-03T09:46:23;3.08;;;1.33;;
48006;SDS011;33771;48.180;11.400;2022-08-03T09:48:49;2.38;;;1.20;;
48006;SDS011;33771;48.180;11.400;2022-08-03T09:51:14;1.95;;;1.20;;
48006;SDS011;33771;48.180;11.400;2022-08-03T09:53:46;5.35;;;1.42;;
48006;SDS011;33771;48.180;11.400;2022-08-03T09:56:12;3.33;;;1.20;;
48006;SDS011;33771;48.180;11.400;2022-08-03T09:58:44;5.40;;;1.48;;
48006;SDS011;33771;48.180;11.400;2022-08-03T10:01:11;2.70;;;1.25;;
48006;SDS011;33771;48.180;11.400;2022-08-03T10:03:38;2.72;;;1.08;;
48006;SDS011;33771;48.180;11.400;2022-08-03T10:06:20;3.78;;;1.17;;
48006;SDS011;33771;48.180;11.400;2022-08-03T10:09:03;2.30;;;1.15;;
48006;SDS011;33771;48.180;11.400;2022-08-03T10:11:29;3.05;;;1.48;;
48006;SDS011;33771;48.180;11.400;2022-08-03T10:13:56;3.30;;;1.20;;
48006;SDS011;33771;48.180;11.400;2022-08-03T10:16:22;3.92;;;1.10;;
48006;SDS011;33771;48.180;11.400;2022-08-03T10:18:47;1.85;;;0.95;;
48006;SDS011;33771;48.180;11.400;2022-08-03T10:21:14;3.88;;;1.20;;
48006;SDS011;33771;48.180;11.400;2022-08-03T10:23:46;3.78;;;1.27;;
48006;SDS011;33771;48.180;11.400;2022-08-03T10:26:15;2.08;;;1.10;;
48006;SDS011;33771;48.180;11.400;2022-08-03T10:28:48;2.70;;;1.05;;
48006;SDS011;33771;48.180;11.400;2022-08-03T10:31:19;3.83;;;1.00;;
48006;SDS011;33771;48.180;11.400;2022-08-03T10:33:48;4.72;;;1.48;;
48006;SDS011;33771;48.180;11.400;2022-08-03T10:36:15;1.15;;;0.82;;
48006;SDS011;33771;48.180;11.400;2022-08-03T10:38:43;2.38;;;1.13;;
48006;SDS011;33771;48.180;11.400;2022-08-03T10:41:12;4.53;;;1.35;;
48006;SDS011;33771;48.180;11.400;2022-08-03T10:46:17;2.58;;;1.10;;
48006;SDS011;33771;48.180;11.400;2022-08-03T10:48:45;3.22;;;0.90;;
48006;SDS011;33771;48.180;11.400;2022-08-03T10:51:13;1.83;;;1.15;;
48006;SDS011;33771;48.180;11.400;2022-08-03T10:53:40;1.20;;;1.10;;
48006;SDS011;33771;48.180;11.400;2022-08-03T11:00:02;4.15;;;1.10;;
48006;SDS011;33771;48.180;11.400;2022-08-03T11:02:13;1.15;;;1.05;;
48006;SDS011;33771;48.180;11.400;2022-08-03T11:04:39;3.00;;;0.95;;
48006;SDS011;33771;48.180;11.400;2022-08-03T11:09:44;3.55;;;1.30;;
48006;SDS011;33771;48.180;11.400;2022-08-03T11:12:21;2.88;;;1.08;;
48006;SDS011;33771;48.180;11.400;2022-08-03T11:14:54;1.48;;;1.10;;
48006;SDS011;33771;48.180;11.400;2022-08-03T11:17:21;1.35;;;0.93;;
48006;SDS011;33771;48.180;11.400;2022-08-03T11:19:49;4.15;;;1.35;;
48006;SDS011;33771;48.180;11.400;2022-08-03T11:22:17;2.70;;;1.20;;
48006;SDS011;33771;48.180;11.400;2022-08-03T11:35:18;2.42;;;1.25;;
48006;SDS011;33771;48.180;11.400;2022-08-03T11:40:37;1.90;;;0.90;;
48006;SDS011;33771;48.180;11.400;2022-08-03T11:43:04;1.20;;;0.98;;
48006;SDS011;33771;48.180;11.400;2022-08-03T11:45:31;2.53;;;1.20;;
48006;SDS011;33771;48.180;11.400;2022-08-03T11:47:56;1.13;;;0.95;;
48006;SDS011;33771;48.180;11.400;2022-08-03T11:50:25;3.08;;;1.13;;
48006;SDS011;33771;48.180;11.400;2022-08-03T11:52:59;3.20;;;1.05;;
48006;SDS011;33771;48.180;11.400;2022-08-03T11:55:25;4.82;;;1.02;;
48006;SDS011;33771;48.180;11.400;2022-08-03T11:57:50;3.60;;;1.02;;
48006;SDS011;33771;48.180;11.400;2022-08-03T12:00:23;1.52;;;1.00;;
48006;SDS011;33771;48.180;11.400;2022-08-03T12:03:07;4.43;;;1.08;;
48006;SDS011;33771;48.180;11.400;2022-08-03T12:08:04;3.10;;;0.90;;
48006;SDS011;33771;48.180;11.400;2022-08-03T12:10:30;1.65;;;1.10;;
48006;SDS011;33771;48.180;11.400;2022-08-03T12:12:56;3.13;;;0.82;;
48006;SDS011;33771;48.180;11.400;2022-08-03T12:15:28;2.50;;;0.88;;
48006;SDS011;33771;48.180;11.400;2022-08-03T12:17:55;1.73;;;1.10;;
48006;SDS011;33771;48.180;11.400;2022-08-03T12:20:23;2.10;;;1.23;;
48006;SDS011;33771;48.180;11.400;2022-08-03T12:22:50;5.32;;;1.23;;
48006;SDS011;33771;48.180;11.400;2022-08-03T12:25:20;2.97;;;1.00;;
48006;SDS011;33771;48.180;11.400;2022-08-03T12:27:48;1.50;;;1.00;;
48006;SDS011;33771;48.180;11.400;2022-08-03T12:30:15;2.50;;;1.00;;
48006;SDS011;33771;48.180;11.400;2022-08-03T12:32:41;4.15;;;1.30;;
48006;SDS011;33771;48.180;11.400;2022-08-03T12:35:07;1.98;;;0.98;;
48006;SDS011;33771;48.180;11.400;2022-08-03T12:37:34;5.10;;;1.35;;
48006;SDS011;33771;48.180;11.400;2022-08-03T12:40:00;3.63;;;1.15;;
48006;SDS011;33771;48.180;11.400;2022-08-03T12:42:29;2.10;;;1.13;;
48006;SDS011;33771;48.180;11.400;2022-08-03T12:44:55;2.50;;;0.90;;
48006;SDS011;33771;48.180;11.400;2022-08-03T12:47:21;1.67;;;1.00;;
48006;SDS011;33771;48.180;11.400;2022-08-03T12:49:47;7.20;;;1.30;;
48006;SDS011;33771;48.180;11.400;2022-08-03T12:52:15;2.83;;;1.00;;
48006;SDS011;33771;48.180;11.400;2022-08-03T12:54:41;1.60;;;1.02;;
48006;SDS011;33771;48.180;11.400;2022-08-03T12:57:17;8.52;;;1.25;;
48006;SDS011;33771;48.180;11.400;2022-08-03T12:59:43;1.92;;;1.10;;
48006;SDS011;33771;48.180;11.400;2022-08-03T13:02:19;2.50;;;0.98;;
48006;SDS011;33771;48.180;11.400;2022-08-03T13:04:50;1.83;;;0.90;;
48006;SDS011;33771;48.180;11.400;2022-08-03T13:07:17;1.88;;;0.95;;
48006;SDS011;33771;48.180;11.400;2022-08-03T13:09:46;2.80;;;1.05;;
48006;SDS011;33771;48.180;11.400;2022-08-03T13:12:17;1.92;;;1.00;;
48006;SDS011;33771;48.180;11.400;2022-08-03T13:14:46;1.67;;;1.05;;
48006;SDS011;33771;48.180;11.400;2022-08-03T13:17:29;3.00;;;1.10;;
48006;SDS011;33771;48.180;11.400;2022-08-03T13:19:55;2.90;;;1.20;;
48006;SDS011;33771;48.180;11.400;2022-08-03T13:22:22;2.22;;;1.00;;
48006;SDS011;33771;48.180;11.400;2022-08-03T13:24:52;4.43;;;1.23;;
48006;SDS011;33771;48.180;11.400;2022-08-03T13:27:23;1.25;;;1.00;;
48006;SDS011;33771;48.180;11.400;2022-08-03T13:29:49;2.45;;;1.00;;
48006;SDS011;33771;48.180;11.400;2022-08-03T13:32:17;2.47;;;1.00;;
48006;SDS011;33771;48.180;11.400;2022-08-03T13:34:43;1.70;;;1.02;;
48006;SDS011;33771;48.180;11.400;2022-08-03T13:37:09;4.70;;;1.25;;
48006;SDS011;33771;48.180;11.400;2022-08-03T13:39:36;3.90;;;1.10;;
48006;SDS011;33771;48.180;11.400;2022-08-03T13:42:01;3.42;;;0.80;;
48006;SDS011;33771;48.180;11.400;2022-08-03T13:44:27;3.13;;;1.38;;
48006;SDS011;33771;48.180;11.400;2022-08-03T13:46:53;4.13;;;1.15;;
48006;SDS011;33771;48.180;11.400;2022-08-03T13:49:18;4.55;;;1.10;;
48006;SDS011;33771;48.180;11.400;2022-08-03T13:51:44;3.55;;;1.05;;
48006;SDS011;33771;48.180;11.400;2022-08-03T13:54:10;2.13;;;1.08;;
48006;SDS011;33771;48.180;11.400;2022-08-03T13:56:35;3.90;;;1.15;;
48006;SDS011;33771;48.180;11.400;2022-08-03T13:59:01;2.42;;;1.30;;
48006;SDS011;33771;48.180;11.400;2022-08-03T14:01:29;2.67;;;1.20;;
48006;SDS011;33771;48.180;11.400;2022-08-03T14:04:05;3.10;;;1.00;;
48006;SDS011;33771;48.180;11.400;2022-08-03T14:06:31;3.30;;;1.30;;
48006;SDS011;33771;48.180;11.400;2022-08-03T14:08:56;1.40;;;1.08;;
48006;SDS011;33771;48.180;11.400;2022-08-03T14:11:22;3.72;;;1.00;;
48006;SDS011;33771;48.180;11.400;2022-08-03T14:13:47;2.97;;;1.10;;
48006;SDS011;33771;48.180;11.400;2022-08-03T14:16:13;1.95;;;1.10;;
48006;SDS011;33771;48.180;11.400;2022-08-03T14:18:39;2.58;;;1.48;;
48006;SDS011;33771;48.180;11.400;2022-08-03T14:21:06;1.88;;;1.13;;
48006;SDS011;33771;48.180;11.400;2022-08-03T14:23:31;3.88;;;1.30;;
48006;SDS011;33771;48.180;11.400;2022-08-03T14:25:57;3.00;;;1.20;;
48006;SDS011;33771;48.180;11.400;2022-08-03T14:28:23;2.55;;;1.10;;
48006;SDS011;33771;48.180;11.400;2022-08-03T14:30:49;1.85;;;0.98;;
48006;SDS011;33771;48.180;11.400;2022-08-03T14:33:15;1.70;;;1.00;;
48006;SDS011;33771;48.180;11.400;2022-08-03T14:35:41;2.58;;;0.98;;
48006;SDS011;33771;48.180;11.400;2022-08-03T14:38:07;1.80;;;1.10;;
48006;SDS011;33771;48.180;11.400;2022-08-03T14:40:32;3.63;;;1.40;;
48006;SDS011;33771;48.180;11.400;2022-08-03T14:42:58;3.03;;;1.13;;
48006;SDS011;33771;48.180;11.400;2022-08-03T14:45:23;5.47;;;1.48;;
48006;SDS011;33771;48.180;11.400;2022-08-03T14:47:49;1.67;;;1.20;;
48006;SDS011;33771;48.180;11.400;2022-08-03T14:50:15;2.60;;;1.02;;
48006;SDS011;33771;48.180;11.400;2022-08-03T14:52:41;4.00;;;1.30;;
48006;SDS011;33771;48.180;11.400;2022-08-03T14:55:06;4.32;;;1.23;;
48006;SDS011;33771;48.180;11.400;2022-08-03T14:57:32;2.42;;;1.30;;
48006;SDS011;33771;48.180;11.400;2022-08-03T14:59:59;12.10;;;1.15;;
48006;SDS011;33771;48.180;11.400;2022-08-03T15:02:24;1.75;;;1.10;;
48006;SDS011;33771;48.180;11.400;2022-08-03T15:04:50;2.55;;;1.20;;
48006;SDS011;33771;48.180;11.400;2022-08-03T15:07:16;3.83;;;1.30;;
48006;SDS011;33771;48.180;11.400;2022-08-03T15:09:41;1.27;;;1.00;;
48006;SDS011;33771;48.180;11.400;2022-08-03T15:12:07;3.65;;;1.13;;
48006;SDS011;33771;48.180;11.400;2022-08-03T15:14:33;2.95;;;1.10;;
48006;SDS011;33771;48.180;11.400;2022-08-03T15:16:58;1.88;;;1.10;;
48006;SDS011;33771;48.180;11.400;2022-08-03T15:19:24;4.05;;;1.40;;
48006;SDS011;33771;48.180;11.400;2022-08-03T15:21:49;1.45;;;1.08;;